METAR AND TAF INFORMATION
METAR FOR KLXY
ADDS - METARS form results

(1448 UTC 21 February 2018)
Data provider http://aviationweather.gov/adds/metars/
 
METAR text: KLXY 211435Z AUTO 36011G16KT 10SM VCTS OVC007 03/03 A3019 RMK AO2 LTG DSNT SE AND S T00320025
Conditions at: KLXY (MEXIA LIMESTONE , TX, US) observed 1435 UTC 21 February 2018
Temperature: 3.2°C (38°F)
Dewpoint: 2.5°C (36°F) [RH = 95%]
Pressure (altimeter): 30.19 inches Hg (1022.4 mb)
Winds: from the N (360 degrees) at 13 MPH (11 knots; 5.7 m/s)
gusting to 18 MPH (16 knots; 8.3 m/s)
Visibility: 10 or more miles (16+ km)
Ceiling: 700 feet AGL
Clouds: overcast cloud deck at 700 feet AGL
Weather: VCTS  (thunderstorm in vicinity)

METAR text: KLXY 211415Z AUTO 36011G14KT 10SM -RA OVC007 03/03 A3021 RMK AO2 LTG DSNT SE AND S T00320025
Conditions at: KLXY (MEXIA LIMESTONE , TX, US) observed 1415 UTC 21 February 2018
Temperature: 3.2°C (38°F)
Dewpoint: 2.5°C (36°F) [RH = 95%]
Pressure (altimeter): 30.21 inches Hg (1023.1 mb)
Winds: from the N (360 degrees) at 13 MPH (11 knots; 5.7 m/s)
gusting to 16 MPH (14 knots; 7.3 m/s)
Visibility: 10 or more miles (16+ km)
Ceiling: 700 feet AGL
Clouds: overcast cloud deck at 700 feet AGL
Weather: -RA  (light rain)

METAR text: KLXY 211355Z AUTO 36010G17KT 10SM OVC005 03/03 A3022 RMK AO2 T00340027
Conditions at: KLXY (MEXIA LIMESTONE , TX, US) observed 1355 UTC 21 February 2018
Temperature: 3.4°C (38°F)
Dewpoint: 2.7°C (37°F) [RH = 95%]
Pressure (altimeter): 30.22 inches Hg (1023.5 mb)
Winds: from the N (360 degrees) at 12 MPH (10 knots; 5.2 m/s)
gusting to 20 MPH (17 knots; 8.8 m/s)
Visibility: 10 or more miles (16+ km)
Ceiling: 500 feet AGL
Clouds: overcast cloud deck at 500 feet AGL
Weather: automated observation with no human augmentation;
there may or may not be significant weather present at this time

 AIRPORT MAP

 RUNWAY INFORMATION
Runway 18 Runway length 4002 ft Runway width 60 ft
Runway elevation 544 ft Runway displaced threshold 0 ft Runway heading 189
Runway 36 Runway length 4002 ft Runway width 60 ft
Runway elevation 533 ft Runway displaced threshold 0 ft Runway heading 9

 AIRPORT FREQUENCIES
Type A/D Name WACO APP/D Frequency 135.2 MHZ
Type UNIC Name CTAF/UNICO Frequency 122.8 MHZ

 AIRPORT NEAR NAVIGATION AIDS


... ... ... ... ... ...

© Copyright 2017 All Rights Reserved. Virtual NATO is in no way affiliated with NATO or any of the NATO Members

NATO Virtual is a volunteer not for profit group of friends with the common interest in promoting enjoyment and education through the simulation of military operations and procedure through the use of operating standards within several flight simulation platforms.

Powered by Virtual Airlines Manager [v2.6.2] Customized by Virtual NATO